Airport View

Enter AWOS ICAO identifier for current METAR.

ex. KFNL

KALO 100254Z AUTO 31009KT 10SM CLR 21/19 A2987 RMK AO2 SLP107 T02110189 53013

10 Jul 2020 03:44

Phone: 319-233-8984

Other Area AWOS: KOLZ - KIIB - KVTI - KCCY

TAF KALO 092330Z 1000/1024 01009KT P6SM VCSH SCT050 OVC120 FM100300 34005KT P6SM SKC FM101600 31011KT P6SM FEW070